Ryuhomaru — JD2639 — position and weather

sailwx.info

Track history (hours):
 
Tides and Currents Weather Stations Pressure Air Temp Water Temp Dewpoint Dewpoint Depression Visibility Wind Speed Wind Dir Waves Ship Positions

Ryuhomaru

Last reported at 2017-Nov-19 14:00 UTC. Time now 2017-Nov-19 14:29 UTC.
Position N 34°34' E 135°19'.

Length 42 m; draft 3.5 m.

Type: Tug. MMSI: 431000586.

Date/timePositionNaut miles runAvg speedWind from/ knotsBaromVisibWave heightAir tempDewpointWater temp
2017-Nov-19 14:00N 34°34' E 135°19'0 0.0
2017-Nov-19 13:30N 34°34' E 135°19'0 0.2
2017-Nov-19 13:00N 34°34' E 135°19'0 0.2
2017-Nov-19 12:30N 34°34' E 135°19'0 0.0
2017-Nov-19 11:59N 34°34' E 135°19'0 0.2
2017-Nov-19 11:30N 34°34' E 135°19'0 0.1
2017-Nov-19 11:00N 34°34' E 135°19'0 0.0
2017-Nov-19 10:28N 34°34' E 135°19'0 0.1
2017-Nov-19 10:00N 34°34' E 135°19'0 0.3
2017-Nov-19 09:30N 34°34' E 135°19'0 0.2
2017-Nov-19 09:00N 34°34' E 135°19'0 0.2
2017-Nov-19 08:30N 34°34' E 135°19'0 0.1
2017-Nov-19 08:00N 34°34' E 135°19'0 0.0
2017-Nov-19 07:30N 34°34' E 135°19'0 0.1
2017-Nov-19 06:58N 34°34' E 135°19'0 0.2
2017-Nov-19 06:29N 34°34' E 135°19'0 0.3
2017-Nov-19 06:00N 34°34' E 135°19'0 0.1
2017-Nov-19 05:30N 34°34' E 135°19'0 0.0
2017-Nov-19 05:00N 34°34' E 135°19'0 0.3
2017-Nov-19 04:30N 34°34' E 135°19'0 0.3
2017-Nov-19 04:00N 34°34' E 135°19'0 0.1
2017-Nov-19 03:29N 34°34' E 135°19'0 0.3
2017-Nov-19 03:00N 34°34' E 135°19'0 0.3
2017-Nov-19 02:30N 34°34' E 135°19'1 2.8
2017-Nov-19 02:00N 34°33' E 135°20'3 3.3
2017-Nov-19 01:10N 34°33' E 135°24'1 3.5
2017-Nov-19 00:59N 34°33' E 135°23'2 5.0
2017-Nov-19 00:30N 34°33' E 135°20'1 2.0
2017-Nov-19 00:00N 34°33' E 135°19'5 9.6
2017-Nov-18 23:30N 34°33' E 135°25'1 2.7
2017-Nov-18 23:00N 34°33' E 135°27'0 0.0
2017-Nov-18 22:30N 34°33' E 135°27'0 0.0
2017-Nov-18 09:03N 34°33' E 135°27'1 7.5
2017-Nov-18 08:59N 34°33' E 135°26'0 0.7
2017-Nov-18 08:23N 34°33' E 135°26'1 0.2
2017-Nov-18 04:08N 34°33' E 135°27'1 6.0
2017-Nov-18 03:55N 34°33' E 135°25'3 5.8
2017-Nov-18 03:23N 34°31' E 135°23'1 2.6
2017-Nov-18 03:00N 34°32' E 135°23'1 2.0
2017-Nov-18 02:30N 34°33' E 135°23'3 5.9
2017-Nov-18 01:57N 34°33' E 135°26'0 0.2
2017-Nov-18 00:28N 34°33' E 135°27'0 0.0
2017-Nov-18 00:00N 34°33' E 135°27'0 0.0
2017-Nov-17 23:30N 34°33' E 135°27'0 0.0
2017-Nov-17 23:00N 34°33' E 135°27'0 0.0
2017-Nov-17 05:54N 34°33' E 135°27'0 0.0
2017-Nov-17 03:56N 34°33' E 135°27'3 1.3
2017-Nov-17 01:54N 34°33' E 135°23'2 3.9
2017-Nov-17 01:30N 34°33' E 135°21'1 1.1
2017-Nov-17 01:00N 34°33' E 135°21'5 9.2
2017-Nov-17 00:30N 34°33' E 135°26'0 0.4
2017-Nov-16 23:52N 34°33' E 135°27'0 0.0
2017-Nov-16 23:26N 34°33' E 135°27'0 0.0
2017-Nov-16 23:00N 34°33' E 135°27'0 0.0
2017-Nov-16 22:30N 34°33' E 135°27'0 0.0
2017-Nov-16 22:00N 34°33' E 135°27'0 0.0
2017-Nov-16 21:30N 34°33' E 135°27'0 0.0
2017-Nov-16 21:00N 34°33' E 135°27'0 0.0
2017-Nov-16 20:30N 34°33' E 135°27'0 0.0
2017-Nov-16 20:00N 34°33' E 135°27'0 0.0
2017-Nov-16 19:30N 34°33' E 135°27'0 0.0
2017-Nov-16 18:59N 34°33' E 135°27'0 0.0
2017-Nov-16 18:30N 34°33' E 135°27'0 0.0
2017-Nov-16 18:00N 34°33' E 135°27'0 0.0
2017-Nov-16 17:30N 34°33' E 135°27'0 0.0
2017-Nov-16 17:00N 34°33' E 135°27'0 0.0
2017-Nov-16 16:30N 34°33' E 135°27'0 0.0
2017-Nov-16 16:00N 34°33' E 135°27'0 0.0
2017-Nov-16 15:30N 34°33' E 135°27'0 0.0
2017-Nov-16 15:00N 34°33' E 135°27'0 0.0
2017-Nov-16 14:30N 34°33' E 135°27'0 0.0
2017-Nov-16 14:00N 34°33' E 135°27'0 0.0
2017-Nov-16 13:30N 34°33' E 135°27'0 0.0
2017-Nov-16 12:59N 34°33' E 135°27'0 0.0
2017-Nov-16 12:28N 34°33' E 135°27'0 0.0
2017-Nov-16 12:00N 34°33' E 135°27'0 0.0
2017-Nov-16 11:30N 34°33' E 135°27'0 0.0
2017-Nov-16 11:00N 34°33' E 135°27'0 0.0
2017-Nov-16 10:30N 34°33' E 135°27'0 0.0
2017-Nov-16 09:55N 34°33' E 135°27'0 0.0
2017-Nov-16 09:28N 34°33' E 135°27'0 0.0
2017-Nov-16 08:53N 34°33' E 135°27'0 0.0
2017-Nov-16 08:21N 34°33' E 135°27'0 0.0
2017-Nov-16 07:58N 34°33' E 135°27'0 0.0
2017-Nov-16 07:29N 34°33' E 135°27'4 8.3
2017-Nov-16 07:00N 34°36' E 135°24'3 4.9
2017-Nov-16 06:28N 34°39' E 135°24'0 0.3
2017-Nov-16 06:00N 34°39' E 135°24'3 6.0
2017-Nov-16 05:30N 34°36' E 135°23'4 7.8
2017-Nov-16 05:00N 34°33' E 135°27'0 0.0
2017-Nov-15 05:36N 34°33' E 135°27'0 0.0
2017-Nov-15 05:29N 34°33' E 135°27'3 5.0
2017-Nov-15 04:49N 34°34' E 135°23'3 6.8
2017-Nov-15 04:19N 34°33' E 135°27'0 0.0
2017-Nov-15 03:57N 34°33' E 135°27'0 0.0
2017-Nov-15 03:15N 34°33' E 135°27'0 0.0
2017-Nov-15 02:55N 34°33' E 135°27'0 0.0
2017-Nov-15 02:30N 34°33' E 135°27'0 0.0
2017-Nov-15 01:59N 34°33' E 135°27'0 0.0
2017-Nov-15 01:27N 34°33' E 135°27'0 0.0
2017-Nov-14 10:41N 34°33' E 135°27'2 6.5
2017-Nov-14 10:25N 34°33' E 135°25'512.6
2017-Nov-14 10:00N 34°31' E 135°19'712.9
2017-Nov-14 09:26N 34°27' E 135°11'6 2.6
2017-Nov-14 07:19N 34°27' E 135°05'413.7
2017-Nov-14 07:00N 34°31' E 135°08'713.6
2017-Nov-14 06:30N 34°36' E 135°12'2 3.2
2017-Nov-14 06:00N 34°36' E 135°11'0 0.3
2017-Nov-14 05:30N 34°37' E 135°11'0 0.2
2017-Nov-14 05:00N 34°37' E 135°11'0 0.6
2017-Nov-14 04:30N 34°37' E 135°11'0 0.2
2017-Nov-14 04:00N 34°37' E 135°11'0 0.1
2017-Nov-14 03:30N 34°37' E 135°11'0 0.1
2017-Nov-14 03:00N 34°37' E 135°11'0 0.1
2017-Nov-14 02:30N 34°37' E 135°11'0 0.1
2017-Nov-14 02:00N 34°37' E 135°11'0 0.1
2017-Nov-14 01:30N 34°37' E 135°11'0 0.5
2017-Nov-14 01:00N 34°37' E 135°11'2 3.4
2017-Nov-14 00:29N 34°35' E 135°10'510.8
2017-Nov-14 00:00N 34°30' E 135°08'1713.3
2017-Nov-13 22:44N 34°15' E 134°60'2 7.5
2017-Nov-13 22:30N 34°13' E 135°01'0 0.4
2017-Nov-13 21:59N 34°13' E 135°00'29 0.7
2017-Nov-12 04:59N 34°33' E 135°27'2 3.9
2017-Nov-12 04:27N 34°33' E 135°24'1 2.7
2017-Nov-12 03:57N 34°33' E 135°25'1 1.5
2017-Nov-12 03:16N 34°33' E 135°27'0 0.0
2017-Nov-12 03:00N 34°33' E 135°27'3 4.5
2017-Nov-12 02:25N 34°34' E 135°24'3 7.9
2017-Nov-12 02:00N 34°38' E 135°24'1 2.0
2017-Nov-12 01:30N 34°37' E 135°25'1 2.5
2017-Nov-12 00:58N 34°38' E 135°23'0 1.0
2017-Nov-12 00:30N 34°37' E 135°23'2 3.6
2017-Nov-12 00:00N 34°36' E 135°23'3 7.1
2017-Nov-11 23:30N 34°33' E 135°27'0 0.4
2017-Nov-11 23:00N 34°33' E 135°27'0 0.0
2017-Nov-11 09:17N 34°33' E 135°27'0 0.0
2017-Nov-11 09:00N 34°33' E 135°27'0 0.0
2017-Nov-11 08:23N 34°33' E 135°27'0 0.0
2017-Nov-11 07:57N 34°33' E 135°27'0 0.0
2017-Nov-11 07:29N 34°33' E 135°27'0 0.0
2017-Nov-11 07:00N 34°33' E 135°27'2 4.9
2017-Nov-11 06:29N 34°32' E 135°24'0 0.1
2017-Nov-11 06:00N 34°32' E 135°24'2 4.9
2017-Nov-11 05:30N 34°33' E 135°27'0 0.1
2017-Nov-11 04:59N 34°33' E 135°27'0 0.0
2017-Nov-11 04:24N 34°33' E 135°27'0 0.0
2017-Nov-11 03:25N 34°33' E 135°27'0 0.0
2017-Nov-11 02:58N 34°33' E 135°27'0 0.0
2017-Nov-11 02:28N 34°33' E 135°27'0 0.0
2017-Nov-11 02:00N 34°33' E 135°27'0 0.0
2017-Nov-11 01:18N 34°33' E 135°27'0 0.0
2017-Nov-11 01:00N 34°33' E 135°27'0 0.0
2017-Nov-11 00:30N 34°33' E 135°27'0 0.0
2017-Nov-11 00:00N 34°33' E 135°27'0 0.0
2017-Nov-10 23:30N 34°33' E 135°27'2 4.9
2017-Nov-10 23:00N 34°32' E 135°24'1 1.3
2017-Nov-10 22:28N 34°32' E 135°24'1 2.7
2017-Nov-10 21:59N 34°33' E 135°24'2 3.0
2017-Nov-10 21:27N 34°33' E 135°25'1 2.3
2017-Nov-10 21:00N 34°33' E 135°27'0 0.0
2017-Nov-10 20:30N 34°33' E 135°27'0 0.0
2017-Nov-10 04:29N 34°33' E 135°27'0 0.0
2017-Nov-10 03:57N 34°33' E 135°27'0 0.0
2017-Nov-10 02:50N 34°33' E 135°27'2 3.8
2017-Nov-10 02:24N 34°33' E 135°25'0 1.0
2017-Nov-10 01:55N 34°33' E 135°25'0 0.3
2017-Nov-10 01:30N 34°33' E 135°25'1 2.6
2017-Nov-10 00:58N 34°33' E 135°27'  
Track history (hours):
 
Tides and Currents Weather Stations Pressure Air Temp Water Temp Dewpoint Dewpoint Depression Visibility Wind Speed Wind Dir Waves Ship Positions

Ryuhomaru

Last reported at 2017-Nov-19 14:00 UTC. Time now 2017-Nov-19 14:29 UTC.
Position N 34°34' E 135°19'.

Length 42 m; draft 3.5 m.

Type: Tug. MMSI: 431000586.

Date/timePositionNaut miles runAvg speedWind from/ knotsBaromVisibWave heightAir tempDewpointWater temp
2017-Nov-19 14:00N 34°34' E 135°19'0 0.0
2017-Nov-19 13:30N 34°34' E 135°19'0 0.2
2017-Nov-19 13:00N 34°34' E 135°19'0 0.2
2017-Nov-19 12:30N 34°34' E 135°19'0 0.0
2017-Nov-19 11:59N 34°34' E 135°19'0 0.2
2017-Nov-19 11:30N 34°34' E 135°19'0 0.1
2017-Nov-19 11:00N 34°34' E 135°19'0 0.0
2017-Nov-19 10:28N 34°34' E 135°19'0 0.1
2017-Nov-19 10:00N 34°34' E 135°19'0 0.3
2017-Nov-19 09:30N 34°34' E 135°19'0 0.2
2017-Nov-19 09:00N 34°34' E 135°19'0 0.2
2017-Nov-19 08:30N 34°34' E 135°19'0 0.1
2017-Nov-19 08:00N 34°34' E 135°19'0 0.0
2017-Nov-19 07:30N 34°34' E 135°19'0 0.1
2017-Nov-19 06:58N 34°34' E 135°19'0 0.2
2017-Nov-19 06:29N 34°34' E 135°19'0 0.3
2017-Nov-19 06:00N 34°34' E 135°19'0 0.1
2017-Nov-19 05:30N 34°34' E 135°19'0 0.0
2017-Nov-19 05:00N 34°34' E 135°19'0 0.3
2017-Nov-19 04:30N 34°34' E 135°19'0 0.3
2017-Nov-19 04:00N 34°34' E 135°19'0 0.1
2017-Nov-19 03:29N 34°34' E 135°19'0 0.3
2017-Nov-19 03:00N 34°34' E 135°19'0 0.3
2017-Nov-19 02:30N 34°34' E 135°19'1 2.8
2017-Nov-19 02:00N 34°33' E 135°20'3 3.3
2017-Nov-19 01:10N 34°33' E 135°24'1 3.5
2017-Nov-19 00:59N 34°33' E 135°23'2 5.0
2017-Nov-19 00:30N 34°33' E 135°20'1 2.0
2017-Nov-19 00:00N 34°33' E 135°19'5 9.6
2017-Nov-18 23:30N 34°33' E 135°25'1 2.7
2017-Nov-18 23:00N 34°33' E 135°27'0 0.0
2017-Nov-18 22:30N 34°33' E 135°27'0 0.0
2017-Nov-18 09:03N 34°33' E 135°27'1 7.5
2017-Nov-18 08:59N 34°33' E 135°26'0 0.7
2017-Nov-18 08:23N 34°33' E 135°26'1 0.2
2017-Nov-18 04:08N 34°33' E 135°27'1 6.0
2017-Nov-18 03:55N 34°33' E 135°25'3 5.8
2017-Nov-18 03:23N 34°31' E 135°23'1 2.6
2017-Nov-18 03:00N 34°32' E 135°23'1 2.0
2017-Nov-18 02:30N 34°33' E 135°23'3 5.9
2017-Nov-18 01:57N 34°33' E 135°26'0 0.2
2017-Nov-18 00:28N 34°33' E 135°27'0 0.0
2017-Nov-18 00:00N 34°33' E 135°27'0 0.0
2017-Nov-17 23:30N 34°33' E 135°27'0 0.0
2017-Nov-17 23:00N 34°33' E 135°27'0 0.0
2017-Nov-17 05:54N 34°33' E 135°27'0 0.0
2017-Nov-17 03:56N 34°33' E 135°27'3 1.3
2017-Nov-17 01:54N 34°33' E 135°23'2 3.9
2017-Nov-17 01:30N 34°33' E 135°21'1 1.1
2017-Nov-17 01:00N 34°33' E 135°21'5 9.2
2017-Nov-17 00:30N 34°33' E 135°26'0 0.4
2017-Nov-16 23:52N 34°33' E 135°27'0 0.0
2017-Nov-16 23:26N 34°33' E 135°27'0 0.0
2017-Nov-16 23:00N 34°33' E 135°27'0 0.0
2017-Nov-16 22:30N 34°33' E 135°27'0 0.0
2017-Nov-16 22:00N 34°33' E 135°27'0 0.0
2017-Nov-16 21:30N 34°33' E 135°27'0 0.0
2017-Nov-16 21:00N 34°33' E 135°27'0 0.0
2017-Nov-16 20:30N 34°33' E 135°27'0 0.0
2017-Nov-16 20:00N 34°33' E 135°27'0 0.0
2017-Nov-16 19:30N 34°33' E 135°27'0 0.0
2017-Nov-16 18:59N 34°33' E 135°27'0 0.0
2017-Nov-16 18:30N 34°33' E 135°27'0 0.0
2017-Nov-16 18:00N 34°33' E 135°27'0 0.0
2017-Nov-16 17:30N 34°33' E 135°27'0 0.0
2017-Nov-16 17:00N 34°33' E 135°27'0 0.0
2017-Nov-16 16:30N 34°33' E 135°27'0 0.0
2017-Nov-16 16:00N 34°33' E 135°27'0 0.0
2017-Nov-16 15:30N 34°33' E 135°27'0 0.0
2017-Nov-16 15:00N 34°33' E 135°27'0 0.0
2017-Nov-16 14:30N 34°33' E 135°27'0 0.0
2017-Nov-16 14:00N 34°33' E 135°27'0 0.0
2017-Nov-16 13:30N 34°33' E 135°27'0 0.0
2017-Nov-16 12:59N 34°33' E 135°27'0 0.0
2017-Nov-16 12:28N 34°33' E 135°27'0 0.0
2017-Nov-16 12:00N 34°33' E 135°27'0 0.0
2017-Nov-16 11:30N 34°33' E 135°27'0 0.0
2017-Nov-16 11:00N 34°33' E 135°27'0 0.0
2017-Nov-16 10:30N 34°33' E 135°27'0 0.0
2017-Nov-16 09:55N 34°33' E 135°27'0 0.0
2017-Nov-16 09:28N 34°33' E 135°27'0 0.0
2017-Nov-16 08:53N 34°33' E 135°27'0 0.0
2017-Nov-16 08:21N 34°33' E 135°27'0 0.0
2017-Nov-16 07:58N 34°33' E 135°27'0 0.0
2017-Nov-16 07:29N 34°33' E 135°27'4 8.3
2017-Nov-16 07:00N 34°36' E 135°24'3 4.9
2017-Nov-16 06:28N 34°39' E 135°24'0 0.3
2017-Nov-16 06:00N 34°39' E 135°24'3 6.0
2017-Nov-16 05:30N 34°36' E 135°23'4 7.8
2017-Nov-16 05:00N 34°33' E 135°27'0 0.0
2017-Nov-15 05:36N 34°33' E 135°27'0 0.0
2017-Nov-15 05:29N 34°33' E 135°27'3 5.0
2017-Nov-15 04:49N 34°34' E 135°23'3 6.8
2017-Nov-15 04:19N 34°33' E 135°27'0 0.0
2017-Nov-15 03:57N 34°33' E 135°27'0 0.0
2017-Nov-15 03:15N 34°33' E 135°27'0 0.0
2017-Nov-15 02:55N 34°33' E 135°27'0 0.0
2017-Nov-15 02:30N 34°33' E 135°27'0 0.0
2017-Nov-15 01:59N 34°33' E 135°27'0 0.0
2017-Nov-15 01:27N 34°33' E 135°27'0 0.0
2017-Nov-14 10:41N 34°33' E 135°27'2 6.5
2017-Nov-14 10:25N 34°33' E 135°25'512.6
2017-Nov-14 10:00N 34°31' E 135°19'712.9
2017-Nov-14 09:26N 34°27' E 135°11'6 2.6
2017-Nov-14 07:19N 34°27' E 135°05'413.7
2017-Nov-14 07:00N 34°31' E 135°08'713.6
2017-Nov-14 06:30N 34°36' E 135°12'2 3.2
2017-Nov-14 06:00N 34°36' E 135°11'0 0.3
2017-Nov-14 05:30N 34°37' E 135°11'0 0.2
2017-Nov-14 05:00N 34°37' E 135°11'0 0.6
2017-Nov-14 04:30N 34°37' E 135°11'0 0.2
2017-Nov-14 04:00N 34°37' E 135°11'0 0.1
2017-Nov-14 03:30N 34°37' E 135°11'0 0.1
2017-Nov-14 03:00N 34°37' E 135°11'0 0.1
2017-Nov-14 02:30N 34°37' E 135°11'0 0.1
2017-Nov-14 02:00N 34°37' E 135°11'0 0.1
2017-Nov-14 01:30N 34°37' E 135°11'0 0.5
2017-Nov-14 01:00N 34°37' E 135°11'2 3.4
2017-Nov-14 00:29N 34°35' E 135°10'510.8
2017-Nov-14 00:00N 34°30' E 135°08'1713.3
2017-Nov-13 22:44N 34°15' E 134°60'2 7.5
2017-Nov-13 22:30N 34°13' E 135°01'0 0.4
2017-Nov-13 21:59N 34°13' E 135°00'29 0.7
2017-Nov-12 04:59N 34°33' E 135°27'2 3.9
2017-Nov-12 04:27N 34°33' E 135°24'1 2.7
2017-Nov-12 03:57N 34°33' E 135°25'1 1.5
2017-Nov-12 03:16N 34°33' E 135°27'0 0.0
2017-Nov-12 03:00N 34°33' E 135°27'3 4.5
2017-Nov-12 02:25N 34°34' E 135°24'3 7.9
2017-Nov-12 02:00N 34°38' E 135°24'1 2.0
2017-Nov-12 01:30N 34°37' E 135°25'1 2.5
2017-Nov-12 00:58N 34°38' E 135°23'0 1.0
2017-Nov-12 00:30N 34°37' E 135°23'2 3.6
2017-Nov-12 00:00N 34°36' E 135°23'3 7.1
2017-Nov-11 23:30N 34°33' E 135°27'0 0.4
2017-Nov-11 23:00N 34°33' E 135°27'0 0.0
2017-Nov-11 09:17N 34°33' E 135°27'0 0.0
2017-Nov-11 09:00N 34°33' E 135°27'0 0.0
2017-Nov-11 08:23N 34°33' E 135°27'0 0.0
2017-Nov-11 07:57N 34°33' E 135°27'0 0.0
2017-Nov-11 07:29N 34°33' E 135°27'0 0.0
2017-Nov-11 07:00N 34°33' E 135°27'2 4.9
2017-Nov-11 06:29N 34°32' E 135°24'0 0.1
2017-Nov-11 06:00N 34°32' E 135°24'2 4.9
2017-Nov-11 05:30N 34°33' E 135°27'0 0.1
2017-Nov-11 04:59N 34°33' E 135°27'0 0.0
2017-Nov-11 04:24N 34°33' E 135°27'0 0.0
2017-Nov-11 03:25N 34°33' E 135°27'0 0.0
2017-Nov-11 02:58N 34°33' E 135°27'0 0.0
2017-Nov-11 02:28N 34°33' E 135°27'0 0.0
2017-Nov-11 02:00N 34°33' E 135°27'0 0.0
2017-Nov-11 01:18N 34°33' E 135°27'0 0.0
2017-Nov-11 01:00N 34°33' E 135°27'0 0.0
2017-Nov-11 00:30N 34°33' E 135°27'0 0.0
2017-Nov-11 00:00N 34°33' E 135°27'0 0.0
2017-Nov-10 23:30N 34°33' E 135°27'2 4.9
2017-Nov-10 23:00N 34°32' E 135°24'1 1.3
2017-Nov-10 22:28N 34°32' E 135°24'1 2.7
2017-Nov-10 21:59N 34°33' E 135°24'2 3.0
2017-Nov-10 21:27N 34°33' E 135°25'1 2.3
2017-Nov-10 21:00N 34°33' E 135°27'0 0.0
2017-Nov-10 20:30N 34°33' E 135°27'0 0.0
2017-Nov-10 04:29N 34°33' E 135°27'0 0.0
2017-Nov-10 03:57N 34°33' E 135°27'0 0.0
2017-Nov-10 02:50N 34°33' E 135°27'2 3.8
2017-Nov-10 02:24N 34°33' E 135°25'0 1.0
2017-Nov-10 01:55N 34°33' E 135°25'0 0.3
2017-Nov-10 01:30N 34°33' E 135°25'1 2.6
2017-Nov-10 00:58N 34°33' E 135°27'  

Dump ship's entire track history